createdAt,value
2019-06-08T00:02:14.932Z,100908.37
2019-06-08T00:04:44.408Z,100895.77
2019-06-08T00:07:14.619Z,100888.47
2019-06-08T00:09:44.118Z,100888.80
2019-06-08T00:12:14.756Z,100891.13
2019-06-08T00:14:44.321Z,100886.46
2019-06-08T00:17:31.395Z,100888.11
2019-06-08T00:19:46.532Z,100884.77
2019-06-08T00:22:15.980Z,100883.01
2019-06-08T00:24:45.383Z,100887.55
2019-06-08T00:27:15.958Z,100881.52
2019-06-08T00:29:45.437Z,100878.97
2019-06-08T00:32:16.105Z,100882.62
2019-06-08T00:34:45.582Z,100889.03
2019-06-08T00:37:15.154Z,100886.02
2019-06-08T00:39:44.550Z,100882.98
2019-06-08T00:42:15.112Z,100894.36
2019-06-08T00:44:44.585Z,100891.90
2019-06-08T00:47:14.027Z,100890.25
2019-06-08T00:49:43.449Z,100888.22
2019-06-08T00:52:12.873Z,100893.48
2019-06-08T00:54:42.314Z,100885.20
2019-06-08T00:57:11.777Z,100897.64
2019-06-08T00:59:41.238Z,100885.95
2019-06-08T01:02:10.674Z,100887.95
2019-06-08T01:04:40.309Z,100877.02
2019-06-08T01:07:09.761Z,100873.63
2019-06-08T01:09:39.271Z,100872.20
2019-06-08T01:12:08.866Z,100867.41
2019-06-08T01:14:38.342Z,100881.67
2019-06-08T01:17:07.857Z,100877.00
2019-06-08T01:19:37.395Z,100879.08
2019-06-08T01:22:06.840Z,100882.09
2019-06-08T01:24:36.245Z,100885.05
2019-06-08T01:27:05.700Z,100877.91
2019-06-08T01:29:35.242Z,100876.36
2019-06-08T01:32:04.686Z,100875.38
2019-06-08T01:34:34.108Z,100872.73
2019-06-08T01:37:03.560Z,100875.20
2019-06-08T01:39:32.970Z,100870.78
2019-06-08T01:42:02.403Z,100877.45
2019-06-08T01:44:32.072Z,100868.91
2019-06-08T01:47:01.539Z,100866.80
2019-06-08T01:49:30.958Z,100863.84
2019-06-08T01:52:00.373Z,100861.77
2019-06-08T01:54:31.422Z,100859.84
2019-06-08T01:57:01.010Z,100863.64
2019-06-08T01:59:32.561Z,100850.65
2019-06-08T02:02:01.565Z,100851.14
2019-06-08T02:04:32.967Z,100857.05
2019-06-08T02:07:02.337Z,100856.97
2019-06-08T02:09:32.766Z,100857.02
2019-06-08T02:12:02.312Z,100852.34
2019-06-08T02:14:33.147Z,100852.25
2019-06-08T02:17:02.676Z,100845.76
2019-06-08T02:19:32.677Z,100848.86
2019-06-08T02:22:02.348Z,100848.77
2019-06-08T02:24:33.257Z,100845.03
2019-06-08T02:27:02.932Z,100847.42
2019-06-08T02:29:33.628Z,100845.88
2019-06-08T02:32:03.211Z,100846.43
2019-06-08T02:34:34.720Z,100841.55
2019-06-08T02:37:03.805Z,100841.42
2019-06-08T02:39:35.315Z,100839.55
2019-06-08T02:42:04.533Z,100839.78
2019-06-08T02:44:34.441Z,100833.30
2019-06-08T02:47:04.281Z,100837.69
2019-06-08T02:49:35.263Z,100840.61
2019-06-08T02:52:04.980Z,100846.34
2019-06-08T02:54:36.881Z,100848.42
2019-06-08T02:57:06.625Z,100851.77
2019-06-08T02:59:40.971Z,100853.38
2019-06-08T03:02:11.619Z,100844.48
2019-06-08T03:04:41.492Z,100844.48
2019-06-08T03:07:10.948Z,100851.18
2019-06-08T03:09:41.704Z,100845.56
2019-06-08T03:12:11.150Z,100851.47
2019-06-08T03:14:42.764Z,100848.86
2019-06-08T03:17:12.236Z,100857.81
2019-06-08T03:19:42.063Z,100857.06
2019-06-08T03:22:11.617Z,100855.36
2019-06-08T03:24:41.566Z,100850.66
2019-06-08T03:27:11.871Z,100854.89
2019-06-08T03:29:42.214Z,100859.23
2019-06-08T03:32:12.521Z,100854.46
2019-06-08T03:34:53.669Z,100853.61
2019-06-08T03:37:13.047Z,100852.55
2019-06-08T03:39:43.090Z,100857.95
2019-06-08T03:42:12.668Z,100869.72
2019-06-08T03:44:43.343Z,100860.49
2019-06-08T03:47:13.610Z,100869.72
2019-06-08T03:49:54.906Z,100859.55
2019-06-08T03:52:14.198Z,100862.75
2019-06-08T03:54:45.258Z,100863.97
2019-06-08T03:57:14.770Z,100863.31
2019-06-08T03:59:46.170Z,100858.33
2019-06-08T04:02:15.319Z,100847.87
2019-06-08T04:04:46.303Z,100857.66
2019-06-08T04:07:15.862Z,100854.56
2019-06-08T04:09:45.948Z,100862.09
2019-06-08T04:12:15.533Z,100854.56
2019-06-08T04:14:46.525Z,100868.41
2019-06-08T04:17:16.164Z,100862.56
2019-06-08T04:20:08.751Z,100865.30
2019-06-08T04:22:16.926Z,100864.86
2019-06-08T04:24:46.695Z,100868.41
2019-06-08T04:27:16.228Z,100870.00
2019-06-08T04:29:46.175Z,100868.03
2019-06-08T04:32:15.767Z,100873.59
2019-06-08T04:34:45.942Z,100873.02
2019-06-08T04:37:16.308Z,100881.69
2019-06-08T04:39:47.000Z,100881.13
2019-06-08T04:42:16.562Z,100877.16
2019-06-08T04:44:46.924Z,100883.01
2019-06-08T04:47:17.028Z,100885.48
2019-06-08T04:49:47.215Z,100884.70
2019-06-08T04:52:17.575Z,100883.84
2019-06-08T04:54:48.133Z,100895.90
2019-06-08T04:57:18.311Z,100893.17
2019-06-08T04:59:50.143Z,100893.27
2019-06-08T05:02:18.891Z,100908.91
2019-06-08T05:04:49.488Z,100901.70
2019-06-08T05:07:19.101Z,100901.55
2019-06-08T05:09:49.503Z,100916.44
2019-06-08T05:12:19.145Z,100905.70
2019-06-08T05:14:49.280Z,100920.30
2019-06-08T05:17:18.802Z,100913.80
2019-06-08T05:19:50.296Z,100911.63
2019-06-08T05:22:19.546Z,100925.02
2019-06-08T05:24:49.975Z,100919.55
2019-06-08T05:27:19.627Z,100919.36
2019-06-08T05:29:50.096Z,100920.41
2019-06-08T05:32:19.687Z,100934.28
2019-06-08T05:34:49.703Z,100912.81
2019-06-08T05:37:19.213Z,100919.25
2019-06-08T05:39:49.908Z,100925.76
2019-06-08T05:42:19.443Z,100928.95
2019-06-08T05:44:50.268Z,100948.89
2019-06-08T05:47:20.026Z,100921.85
2019-06-08T05:49:49.988Z,100920.88
2019-06-08T05:52:19.598Z,100928.03
2019-06-08T05:54:50.149Z,100921.80
2019-06-08T05:57:19.753Z,100925.58
2019-06-08T05:59:50.307Z,100938.20
2019-06-08T06:02:19.965Z,100932.16
2019-06-08T06:04:52.202Z,100929.81
2019-06-08T06:07:20.613Z,100939.23
2019-06-08T06:09:51.103Z,100930.20
2019-06-08T06:12:20.760Z,100936.70
2019-06-08T06:14:51.211Z,100924.69
2019-06-08T06:17:20.790Z,100939.27
2019-06-08T06:19:51.528Z,100941.25
2019-06-08T06:22:21.156Z,100947.79
2019-06-08T06:24:51.631Z,100955.01
2019-06-08T06:27:21.379Z,100948.87
2019-06-08T06:29:52.006Z,100941.08
2019-06-08T06:32:21.625Z,100932.18
2019-06-08T06:34:52.196Z,100957.04
2019-06-08T06:37:21.740Z,100944.80
2019-06-08T06:39:52.297Z,100968.15
2019-06-08T06:42:24.953Z,100964.77
2019-06-08T06:44:54.154Z,100968.39
2019-06-08T06:47:23.631Z,100972.44
2019-06-08T06:49:53.073Z,100974.05
2019-06-08T06:52:22.488Z,100974.05
2019-06-08T06:54:53.259Z,100983.94
2019-06-08T06:57:22.829Z,100983.80
2019-06-08T06:59:52.306Z,100990.48
2019-06-08T07:02:22.366Z,100999.48
2019-06-08T07:04:52.254Z,101015.69
2019-06-08T07:07:21.764Z,101001.12
2019-06-08T07:09:52.632Z,101012.28
2019-06-08T07:12:22.273Z,101017.25
2019-06-08T07:14:52.851Z,101008.95
2019-06-08T07:17:22.742Z,101023.13
2019-06-08T07:19:52.632Z,101030.91
2019-06-08T07:22:22.227Z,101020.40
2019-06-08T07:24:52.663Z,101039.45
2019-06-08T07:27:22.208Z,101025.69
2019-06-08T07:29:52.659Z,101046.29
2019-06-08T07:32:22.160Z,101036.72
2019-06-08T07:34:51.648Z,101036.29
2019-06-08T07:37:21.055Z,101025.41
2019-06-08T07:39:51.557Z,101040.20
2019-06-08T07:42:21.126Z,101040.44
2019-06-08T07:44:50.846Z,101039.22
2019-06-08T07:47:20.388Z,101040.92
2019-06-08T07:49:51.103Z,101043.13
2019-06-08T07:52:20.627Z,101043.23
2019-06-08T07:54:50.949Z,101055.33
2019-06-08T07:57:20.442Z,101050.76
2019-06-08T07:59:50.322Z,101054.77
2019-06-08T08:02:19.874Z,101043.69
2019-06-08T08:04:50.441Z,101062.33
2019-06-08T08:07:20.016Z,101059.45
2019-06-08T08:09:50.558Z,101059.58
2019-06-08T08:12:20.069Z,101076.88
2019-06-08T08:14:49.496Z,101071.86
2019-06-08T08:17:18.927Z,101083.26
2019-06-08T08:19:48.968Z,101078.09
2019-06-08T08:22:25.888Z,101085.84
2019-06-08T08:24:54.449Z,101075.84
2019-06-08T08:27:23.038Z,101085.87
2019-06-08T08:29:53.273Z,101094.63
2019-06-08T08:32:22.744Z,101098.50
2019-06-08T08:34:52.235Z,101106.27
2019-06-08T08:37:21.633Z,101103.59
2019-06-08T08:39:51.811Z,101110.05
2019-06-08T08:42:21.291Z,101108.12
2019-06-08T08:44:51.574Z,101105.24
2019-06-08T08:47:22.205Z,101114.03
2019-06-08T08:49:52.186Z,101131.76
2019-06-08T08:52:33.643Z,101132.59
2019-06-08T08:54:52.795Z,101135.55
2019-06-08T08:57:22.245Z,101131.71
2019-06-08T08:59:54.576Z,101151.18
2019-06-08T09:02:23.006Z,101147.23
2019-06-08T09:04:53.492Z,101152.19
2019-06-08T09:07:23.697Z,101152.11
2019-06-08T09:09:53.563Z,101158.16
2019-06-08T09:12:23.134Z,101170.95
2019-06-08T09:14:54.228Z,101165.37
2019-06-08T09:17:24.637Z,101173.41
2019-06-08T09:19:55.853Z,101174.64
2019-06-08T09:22:25.163Z,101172.72
2019-06-08T09:24:56.148Z,101180.98
2019-06-08T09:27:28.101Z,101187.56
2019-06-08T09:30:00.724Z,101183.72
2019-06-08T09:32:28.714Z,101182.08
2019-06-08T09:35:02.314Z,101195.83
2019-06-08T09:37:29.322Z,101194.20
2019-06-08T09:40:00.319Z,101201.09
2019-06-08T09:42:30.103Z,101193.65
2019-06-08T09:45:02.144Z,101203.63
2019-06-08T09:47:30.636Z,101215.48
2019-06-08T09:50:03.810Z,101194.34
2019-06-08T09:52:32.685Z,101219.86
2019-06-08T09:55:05.860Z,101207.36
2019-06-08T09:57:33.390Z,101216.58
2019-06-08T10:00:14.334Z,101201.84
2019-06-08T10:02:34.608Z,101217.36
2019-06-08T10:05:06.340Z,101224.73
2019-06-08T10:07:38.539Z,101228.66
2019-06-08T10:10:09.807Z,101230.37
2019-06-08T10:12:41.028Z,101228.45
2019-06-08T10:15:11.106Z,101242.09
2019-06-08T10:17:40.524Z,101224.05
2019-06-08T10:20:10.771Z,101246.27
2019-06-08T10:22:40.251Z,101238.53
2019-06-08T10:25:11.298Z,101240.69
2019-06-08T10:27:41.535Z,101248.65
2019-06-08T10:30:11.531Z,101255.72
2019-06-08T10:32:41.028Z,101255.78
2019-06-08T10:35:10.849Z,101249.33
2019-06-08T10:37:40.346Z,101253.52
2019-06-08T10:40:10.702Z,101253.62
2019-06-08T10:42:40.404Z,101250.18
2019-06-08T10:45:14.404Z,101254.29
2019-06-08T10:47:42.600Z,101246.62
2019-06-08T10:50:15.336Z,101253.33
2019-06-08T10:52:44.311Z,101252.95
2019-06-08T10:55:14.239Z,101243.72
2019-06-08T10:57:43.688Z,101255.42
2019-06-08T11:00:22.829Z,101260.25
2019-06-08T11:02:48.715Z,101270.92
2019-06-08T11:05:18.159Z,101259.16
2019-06-08T11:07:48.056Z,101265.58
2019-06-08T11:10:19.135Z,101255.77
2019-06-08T11:12:48.769Z,101262.79
2019-06-08T11:15:18.376Z,101271.58
2019-06-08T11:17:47.776Z,101257.03
2019-06-08T11:20:17.375Z,101274.66
2019-06-08T11:22:50.108Z,101274.21
2019-06-08T11:25:20.003Z,101269.48
2019-06-08T11:27:49.649Z,101276.34
2019-06-08T11:30:24.131Z,101275.93
2019-06-08T11:32:50.856Z,101289.92
2019-06-08T11:35:20.442Z,101291.23
2019-06-08T11:37:49.898Z,101306.81
2019-06-08T11:40:20.847Z,101312.36
2019-06-08T11:42:50.646Z,101313.97
2019-06-08T11:45:20.427Z,101323.65
2019-06-08T11:47:49.884Z,101316.34
2019-06-08T11:50:22.362Z,101324.87
2019-06-08T11:52:51.806Z,101334.49
2019-06-08T11:55:21.245Z,101327.48
2019-06-08T11:57:51.053Z,101329.39
2019-06-08T12:00:41.851Z,101351.30
2019-06-08T12:03:12.029Z,101350.31
2019-06-08T12:05:42.530Z,101342.44
2019-06-08T12:08:12.658Z,101348.84
2019-06-08T12:10:42.106Z,101343.91
2019-06-08T12:13:12.849Z,101341.11
2019-06-08T12:15:42.703Z,101355.50
2019-06-08T12:18:12.682Z,101365.70
2019-06-08T12:20:43.350Z,101358.97
2019-06-08T12:23:12.806Z,101363.08
2019-06-08T12:25:42.219Z,101376.14
2019-06-08T12:28:12.602Z,101369.34
2019-06-08T12:30:42.455Z,101363.58
2019-06-08T12:33:12.721Z,101372.06
2019-06-08T12:35:43.487Z,101390.98
2019-06-08T12:38:14.171Z,101379.98
2019-06-08T12:40:44.176Z,101391.68
2019-06-08T12:43:14.656Z,101391.52
2019-06-08T12:45:44.862Z,101392.85
2019-06-08T12:48:18.396Z,101399.94
2019-06-08T12:50:47.676Z,101386.16
2019-06-08T12:53:20.727Z,101414.98
2019-06-08T12:55:47.820Z,101418.03
2019-06-08T12:58:21.811Z,101410.73
2019-06-08T13:00:48.473Z,101415.76
2019-06-08T13:03:18.809Z,101434.30
2019-06-08T13:05:48.329Z,101413.72
2019-06-08T13:08:20.168Z,101445.12
2019-06-08T13:10:48.934Z,101434.43
2019-06-08T13:13:23.603Z,101457.83
2019-06-08T13:15:49.557Z,101464.60
2019-06-08T13:18:21.209Z,101474.96
2019-06-08T13:20:51.850Z,101469.90
2019-06-08T13:23:21.443Z,101475.20
2019-06-08T13:25:51.018Z,101476.82
2019-06-08T13:28:25.241Z,101485.23
2019-06-08T13:30:51.572Z,101492.56
2019-06-08T13:33:21.147Z,101484.80
2019-06-08T13:35:50.553Z,101501.33
2019-06-08T13:38:22.810Z,101485.03
2019-06-08T13:40:51.107Z,101488.78
2019-06-08T13:43:21.594Z,101501.87
2019-06-08T13:45:51.713Z,101494.19
2019-06-08T13:48:22.051Z,101491.56
2019-06-08T13:50:52.421Z,101488.92
2019-06-08T13:53:27.332Z,101490.66
2019-06-08T13:55:56.391Z,101496.21
2019-06-08T13:58:32.180Z,101496.08
2019-06-08T14:00:57.417Z,101489.27
2019-06-08T14:03:27.795Z,101499.62
2019-06-08T14:05:57.419Z,101482.94
2019-06-08T14:08:32.844Z,101477.13
2019-06-08T14:11:00.916Z,101476.56
2019-06-08T14:13:34.429Z,101479.50
2019-06-08T14:16:03.378Z,101484.75
2019-06-08T14:18:34.503Z,101488.03
2019-06-08T14:21:03.974Z,101489.83
2019-06-08T14:23:33.413Z,101487.80
2019-06-08T14:26:02.855Z,101484.48
2019-06-08T14:28:32.289Z,101483.26
2019-06-08T14:31:01.743Z,101482.67
2019-06-08T14:33:33.328Z,101470.66
2019-06-08T14:36:02.296Z,101504.76
2019-06-08T14:38:37.932Z,101495.52
2019-06-08T14:41:02.863Z,101508.89
2019-06-08T14:43:32.272Z,101505.80
2019-06-08T14:46:01.778Z,101502.95
2019-06-08T14:48:33.732Z,101508.50
2019-06-08T14:51:03.299Z,101517.24
2019-06-08T14:53:32.715Z,101515.45
2019-06-08T14:56:08.073Z,101510.94
2019-06-08T14:58:35.033Z,101499.79
2019-06-08T15:01:04.637Z,101513.38
2019-06-08T15:03:34.049Z,101523.89
2019-06-08T15:06:03.556Z,101519.85
2019-06-08T15:08:32.970Z,101520.15
2019-06-08T15:11:02.543Z,101521.08
2019-06-08T15:13:31.947Z,101531.72
2019-06-08T15:16:01.376Z,101534.74
2019-06-08T15:18:31.871Z,101529.69
2019-06-08T15:21:01.432Z,101536.69
2019-06-08T15:23:32.815Z,101545.39
2019-06-08T15:26:02.328Z,101557.95
2019-06-08T15:28:35.930Z,101572.47
2019-06-08T15:31:02.898Z,101580.60
2019-06-08T15:33:33.747Z,101593.77
2019-06-08T15:36:03.281Z,101569.50
2019-06-08T15:38:33.522Z,101561.12
2019-06-08T15:41:03.009Z,101564.50
2019-06-08T15:43:36.868Z,101563.64
2019-06-08T15:46:04.297Z,101573.38
2019-06-08T15:48:34.274Z,101566.92
2019-06-08T15:51:03.692Z,101573.97
2019-06-08T15:53:34.203Z,101574.73
2019-06-08T15:56:03.672Z,101582.20
2019-06-08T15:58:34.020Z,101586.31
2019-06-08T16:01:03.514Z,101587.92
2019-06-08T16:03:33.517Z,101589.58
2019-06-08T16:06:03.084Z,101588.24
2019-06-08T16:08:32.470Z,101596.16
2019-06-08T16:11:01.968Z,101610.25
2019-06-08T16:13:32.494Z,101598.03
2019-06-08T16:16:02.133Z,101602.87
2019-06-08T16:18:31.772Z,101611.84
2019-06-08T16:21:01.181Z,101621.01
2019-06-08T16:23:31.824Z,101637.45
2019-06-08T16:26:01.418Z,101636.52
2019-06-08T16:28:32.072Z,101624.08
2019-06-08T16:31:01.493Z,101635.75
2019-06-08T16:33:31.194Z,101622.19
2019-06-08T16:36:00.617Z,101623.06
2019-06-08T16:38:30.077Z,101627.52
2019-06-08T16:40:59.504Z,101632.31
2019-06-08T16:43:29.112Z,101641.09
2019-06-08T16:45:58.543Z,101651.64
2019-06-08T16:48:28.095Z,101630.42
2019-06-08T16:50:57.491Z,101634.80
2019-06-08T16:53:27.439Z,101639.53
2019-06-08T16:55:56.829Z,101641.89
2019-06-08T16:58:26.294Z,101648.03
2019-06-08T17:00:55.751Z,101657.94
2019-06-08T17:03:25.190Z,101644.24
2019-06-08T17:05:54.706Z,101649.27
2019-06-08T17:08:24.174Z,101652.13
2019-06-08T17:10:53.801Z,101654.47
2019-06-08T17:13:23.259Z,101668.42
2019-06-08T17:15:53.451Z,101671.53
2019-06-08T17:18:22.910Z,101678.84
2019-06-08T17:20:52.672Z,101686.23
2019-06-08T17:23:22.117Z,101677.30
2019-06-08T17:25:51.568Z,101680.06
2019-06-08T17:28:21.000Z,101686.52
2019-06-08T17:30:50.460Z,101695.46
2019-06-08T17:33:19.925Z,101692.92
2019-06-08T17:35:49.375Z,101706.66
2019-06-08T17:38:18.866Z,101702.82
2019-06-08T17:40:48.309Z,101698.68
2019-06-08T17:43:18.630Z,101710.08
2019-06-08T17:45:48.147Z,101714.20
2019-06-08T17:48:17.592Z,101714.14
2019-06-08T17:50:47.229Z,101715.37
2019-06-08T17:53:16.683Z,101724.64
2019-06-08T17:55:46.136Z,101720.27
2019-06-08T17:58:15.711Z,101713.80
2019-06-08T18:00:45.770Z,101711.18
2019-06-08T18:03:17.291Z,101727.56
2019-06-08T18:05:48.667Z,101718.34
2019-06-08T18:08:18.067Z,101725.95
2019-06-08T18:10:48.338Z,101722.14
2019-06-08T18:13:18.480Z,101732.17
2019-06-08T18:15:48.449Z,101724.40
2019-06-08T18:18:17.931Z,101736.00
2019-06-08T18:20:48.465Z,101740.55
2019-06-08T18:23:18.648Z,101747.28
2019-06-08T18:25:48.497Z,101733.61
2019-06-08T18:28:17.951Z,101751.78
2019-06-08T18:30:49.353Z,101749.30
2019-06-08T18:33:19.393Z,101755.42
2019-06-08T18:35:49.435Z,101750.45
2019-06-08T18:38:18.958Z,101768.16
2019-06-08T18:40:48.704Z,101761.69
2019-06-08T18:43:19.719Z,101767.82
2019-06-08T18:45:50.105Z,101760.71
2019-06-08T18:48:19.654Z,101770.65
2019-06-08T18:50:49.182Z,101777.05
2019-06-08T18:53:19.107Z,101767.65
2019-06-08T18:55:50.236Z,101778.70
2019-06-08T18:58:24.694Z,101777.33
2019-06-08T19:00:53.214Z,101790.55
2019-06-08T19:03:22.595Z,101781.31
2019-06-08T19:05:52.288Z,101798.36
2019-06-08T19:08:22.295Z,101797.84
2019-06-08T19:10:51.735Z,101793.85
2019-06-08T19:13:21.193Z,101797.62
2019-06-08T19:15:52.979Z,101798.16
2019-06-08T19:18:21.827Z,101807.39
2019-06-08T19:20:53.505Z,101820.26
2019-06-08T19:23:22.389Z,101815.84
2019-06-08T19:25:51.819Z,101812.74
2019-06-08T19:28:35.277Z,101818.02
2019-06-08T19:30:52.430Z,101829.14
2019-06-08T19:33:21.946Z,101817.73
2019-06-08T19:35:53.644Z,101830.59
2019-06-08T19:38:22.548Z,101824.60
2019-06-08T19:40:52.198Z,101830.52
2019-06-08T19:43:21.781Z,101834.09
2019-06-08T19:45:52.100Z,101843.08
2019-06-08T19:48:21.733Z,101843.61
2019-06-08T19:50:54.095Z,101845.17
2019-06-08T19:53:22.286Z,101844.97
2019-06-08T19:55:53.945Z,101850.05
2019-06-08T19:58:22.872Z,101853.61
2019-06-08T20:00:54.634Z,101874.05
2019-06-08T20:03:23.446Z,101870.64
2019-06-08T20:05:53.606Z,101866.41
2019-06-08T20:08:23.250Z,101871.75
2019-06-08T20:10:53.696Z,101880.02
2019-06-08T20:13:23.237Z,101877.37
2019-06-08T20:15:57.318Z,101880.41
2019-06-08T20:18:23.799Z,101874.67
2019-06-08T20:20:54.453Z,101888.44
2019-06-08T20:23:23.966Z,101894.24
2019-06-08T20:25:53.553Z,101898.27
2019-06-08T20:28:22.964Z,101898.73
2019-06-08T20:30:52.662Z,101898.08
2019-06-08T20:33:22.115Z,101898.25
2019-06-08T20:35:51.998Z,101904.45
2019-06-08T20:38:34.125Z,101903.66
2019-06-08T20:40:52.627Z,101908.08
2019-06-08T20:43:22.038Z,101912.75
2019-06-08T20:45:52.163Z,101912.84
2019-06-08T20:48:22.633Z,101922.94
2019-06-08T20:50:52.565Z,101920.89
2019-06-08T20:53:23.286Z,101927.16
2019-06-08T20:55:53.954Z,101929.05
2019-06-08T20:58:23.523Z,101936.44
2019-06-08T21:00:54.156Z,101934.32
2019-06-08T21:03:25.160Z,101947.31
2019-06-08T21:05:54.600Z,101950.45
2019-06-08T21:08:24.053Z,101945.27
2019-06-08T21:10:54.608Z,101950.88
2019-06-08T21:13:24.644Z,101954.23
2019-06-08T21:15:58.045Z,101957.83
2019-06-08T21:18:28.233Z,101958.19
2019-06-08T21:20:58.212Z,101955.55
2019-06-08T21:23:31.162Z,101964.47
2019-06-08T21:26:00.135Z,101963.75
2019-06-08T21:28:29.860Z,101971.59
2019-06-08T21:31:02.134Z,101974.02
2019-06-08T21:33:30.425Z,101960.04
2019-06-08T21:36:04.726Z,101973.16
2019-06-08T21:38:31.000Z,101983.30
2019-06-08T21:41:02.823Z,101984.89
2019-06-08T21:43:31.654Z,101980.14
2019-06-08T21:46:01.207Z,101980.07
2019-06-08T21:48:30.701Z,101985.47
2019-06-08T21:51:01.757Z,101990.89
2019-06-08T21:53:31.392Z,101995.30
2019-06-08T21:56:01.387Z,102000.70
2019-06-08T21:58:30.838Z,101996.29
2019-06-08T22:01:01.108Z,102006.95
2019-06-08T22:03:30.721Z,102006.49
2019-06-08T22:06:00.293Z,102009.65
2019-06-08T22:08:29.670Z,101999.51
2019-06-08T22:11:00.696Z,101998.86
2019-06-08T22:13:30.430Z,101998.19
2019-06-08T22:16:02.045Z,101996.35
2019-06-08T22:18:31.035Z,101996.16
2019-06-08T22:21:01.170Z,101996.98
2019-06-08T22:23:30.807Z,102000.73
2019-06-08T22:26:01.127Z,102003.61
2019-06-08T22:28:30.759Z,102009.04
2019-06-08T22:31:01.715Z,102005.73
2019-06-08T22:33:31.349Z,102015.59
2019-06-08T22:36:00.822Z,102010.50
2019-06-08T22:38:30.221Z,102021.44
2019-06-08T22:41:00.758Z,102016.69
2019-06-08T22:43:30.787Z,102023.20
2019-06-08T22:46:01.834Z,102024.48
2019-06-08T22:48:31.349Z,102020.84
2019-06-08T22:51:02.624Z,102024.61
2019-06-08T22:53:31.923Z,102026.11
2019-06-08T22:56:02.790Z,102032.98
2019-06-08T22:58:32.516Z,102034.86
2019-06-08T23:01:06.457Z,102036.34
2019-06-08T23:03:33.107Z,102039.55
2019-06-08T23:06:03.866Z,102040.06
2019-06-08T23:08:33.965Z,102035.81
2019-06-08T23:11:04.026Z,102040.84
2019-06-08T23:13:34.673Z,102039.03
2019-06-08T23:16:05.612Z,102039.08
2019-06-08T23:18:37.352Z,102040.09
2019-06-08T23:21:08.671Z,102053.19
2019-06-08T23:23:38.194Z,102049.25
2019-06-08T23:26:10.543Z,102056.17
2019-06-08T23:28:38.902Z,102054.16
2019-06-08T23:31:19.715Z,102063.66
2019-06-08T23:33:40.259Z,102060.73
2019-06-08T23:36:44.186Z,102057.05
2019-06-08T23:38:40.877Z,102065.05
2019-06-08T23:41:10.315Z,102059.53
2019-06-08T23:43:39.783Z,102065.81
2019-06-08T23:46:09.264Z,102071.17
2019-06-08T23:48:39.046Z,102073.40
2019-06-08T23:51:10.658Z,102075.21
2019-06-08T23:53:39.895Z,102080.92
2019-06-08T23:56:11.735Z,102087.09
2019-06-08T23:58:40.526Z,102079.32
